Time;durP1;ratioP1;P1;durP2;ratioP2;P2;SDS_P1;SDS_P2;PMS_P1;PMS_P2;Temp;Humidity;BMP_temperature;BMP_pressure;BME280_temperature;BME280_humidity;BME280_pressure;Samples;Min_cycle;Max_cycle;Signal;HPM_P1;HPM_P2
2022/06/05 00:00:30;;;;;;;64.30;27.98;;;;;;;;;;6201134;28;20129;-61
2022/06/05 00:03:48;;;;;;;48.58;26.60;;;;;;;;;;6196079;28;20053;-60
2022/06/05 00:06:48;;;;;;;48.65;27.02;;;;;;;;;;6199059;28;20054;-61
2022/06/05 00:10:08;;;;;;;50.50;26.75;;;;;;;;;;6195910;28;20539;-60
2022/06/05 00:13:21;;;;;;;45.58;26.02;;;;;;;;;;6208921;28;20117;-60
2022/06/05 00:16:26;;;;;;;45.95;26.00;;;;;;;;;;6215457;28;20042;-60
2022/06/05 00:19:26;;;;;;;50.08;26.65;;;;;;;;;;6200224;28;20049;-61
2022/06/05 00:22:27;;;;;;;49.90;27.35;;;;;;;;;;6198809;28;20057;-60
2022/06/05 00:25:39;;;;;;;46.28;25.83;;;;;;;;;;6198474;28;20052;-60
2022/06/05 00:28:48;;;;;;;51.70;28.75;;;;;;;;;;6200286;28;20085;-61
2022/06/05 00:32:18;;;;;;;48.95;27.35;;;;;;;;;;6203579;28;20133;-60
2022/06/05 00:35:21;;;;;;;50.08;26.33;;;;;;;;;;6198244;28;20476;-61
2022/06/05 00:38:34;;;;;;;45.50;24.95;;;;;;;;;;6197359;28;20068;-61
2022/06/05 00:41:47;;;;;;;47.35;26.35;;;;;;;;;;6196661;28;20065;-61
2022/06/05 00:44:50;;;;;;;44.72;25.75;;;;;;;;;;6198072;28;20086;-60
2022/06/05 00:47:51;;;;;;;50.95;27.00;;;;;;;;;;6198939;28;20050;-60
2022/06/05 00:50:51;;;;;;;51.28;27.77;;;;;;;;;;6198841;28;20081;-61
2022/06/05 00:53:52;;;;;;;52.42;29.27;;;;;;;;;;6199261;28;20111;-61
2022/06/05 00:56:52;;;;;;;53.58;27.92;;;;;;;;;;6199350;28;20046;-61
2022/06/05 00:59:54;;;;;;;52.70;27.65;;;;;;;;;;6200063;28;20599;-61
2022/06/05 01:02:56;;;;;;;53.25;28.10;;;;;;;;;;6197895;28;20628;-61
2022/06/05 01:05:57;;;;;;;57.08;29.88;;;;;;;;;;6197189;28;20073;-61
2022/06/05 01:08:57;;;;;;;61.78;30.45;;;;;;;;;;6198422;28;20573;-61
2022/06/05 01:12:04;;;;;;;53.55;30.73;;;;;;;;;;6196190;28;20039;-60
2022/06/05 01:15:31;;;;;;;58.75;30.50;;;;;;;;;;6195736;28;20058;-61
2022/06/05 01:18:56;;;;;;;56.13;31.02;;;;;;;;;;6206059;28;20062;-61
2022/06/05 01:22:26;;;;;;;56.95;30.45;;;;;;;;;;6204543;28;20042;-61
2022/06/05 01:26:00;;;;;;;56.83;28.92;;;;;;;;;;6202792;28;20104;-61
2022/06/05 01:29:24;;;;;;;52.90;28.38;;;;;;;;;;6202325;28;20055;-61
2022/06/05 01:33:10;;;;;;;52.17;27.80;;;;;;;;;;6203976;28;20182;-61
2022/06/05 01:36:22;;;;;;;54.80;25.38;;;;;;;;;;6205128;28;20053;-61
2022/06/05 01:39:39;;;;;;;53.63;27.05;;;;;;;;;;6207394;28;20105;-60
2022/06/05 01:43:08;;;;;;;62.33;26.55;;;;;;;;;;6204537;28;20053;-61
2022/06/05 01:46:29;;;;;;;130.25;26.92;;;;;;;;;;6206422;28;20046;-61
2022/06/05 01:49:38;;;;;;;48.05;25.73;;;;;;;;;;6200935;28;20041;-61
2022/06/05 01:52:47;;;;;;;46.03;24.42;;;;;;;;;;6208432;28;20436;-61
2022/06/05 01:55:51;;;;;;;118.82;26.55;;;;;;;;;;6202207;28;20087;-61
2022/06/05 01:58:55;;;;;;;125.07;27.65;;;;;;;;;;6207997;28;20070;-62
2022/06/05 02:01:59;;;;;;;48.83;26.23;;;;;;;;;;6210494;28;20485;-62
2022/06/05 02:05:08;;;;;;;180.63;32.47;;;;;;;;;;6208122;28;20415;-61
2022/06/05 02:08:18;;;;;;;58.85;28.95;;;;;;;;;;6204963;28;20466;-61
2022/06/05 02:11:24;;;;;;;66.45;29.23;;;;;;;;;;6211346;28;20071;-61
2022/06/05 02:14:26;;;;;;;59.63;30.55;;;;;;;;;;6204366;28;20074;-62
2022/06/05 02:17:27;;;;;;;102.10;28.97;;;;;;;;;;6210549;28;20140;-61
2022/06/05 02:20:28;;;;;;;61.92;29.17;;;;;;;;;;6207065;28;20378;-61
2022/06/05 02:23:33;;;;;;;124.20;30.25;;;;;;;;;;6203265;28;20483;-61
2022/06/05 02:26:34;;;;;;;102.18;28.80;;;;;;;;;;6199346;28;20050;-61
2022/06/05 02:29:37;;;;;;;79.82;27.90;;;;;;;;;;6204502;28;20046;-61
2022/06/05 02:32:58;;;;;;;96.28;26.70;;;;;;;;;;6206728;28;20112;-61
2022/06/05 02:36:08;;;;;;;83.70;28.55;;;;;;;;;;6200251;28;20058;-61
2022/06/05 02:39:29;;;;;;;56.85;25.75;;;;;;;;;;6196463;28;20050;-61
2022/06/05 02:42:34;;;;;;;58.80;29.45;;;;;;;;;;6192398;28;20144;-61
2022/06/05 02:45:53;;;;;;;63.15;28.98;;;;;;;;;;6199586;28;20062;-61
2022/06/05 02:49:00;;;;;;;67.53;32.05;;;;;;;;;;6197518;28;20046;-61
2022/06/05 02:52:04;;;;;;;103.13;37.60;;;;;;;;;;6198399;28;20053;-62
2022/06/05 02:55:21;;;;;;;106.43;33.72;;;;;;;;;;6197951;28;20069;-61
2022/06/05 02:58:22;;;;;;;66.72;32.00;;;;;;;;;;6197110;28;20513;-62
2022/06/05 03:04:42;;;;;;;64.55;30.10;;;;;;;;;;6201575;28;20050;-61
2022/06/05 03:07:43;;;;;;;59.30;29.58;;;;;;;;;;6204140;28;20073;-61
2022/06/05 03:10:45;;;;;;;70.00;32.90;;;;;;;;;;6202653;28;20138;-61
2022/06/05 03:13:47;;;;;;;81.30;25.35;;;;;;;;;;6205778;28;20506;-61
2022/06/05 03:16:47;;;;;;;53.93;25.40;;;;;;;;;;6203573;28;20466;-61
2022/06/05 03:19:48;;;;;;;62.85;26.75;;;;;;;;;;6202896;28;20042;-61
2022/06/05 03:22:49;;;;;;;78.47;26.13;;;;;;;;;;6205133;28;20125;-61
2022/06/05 03:25:50;;;;;;;148.27;27.30;;;;;;;;;;6218536;28;20559;-61
2022/06/05 03:28:50;;;;;;;109.82;25.48;;;;;;;;;;6204530;28;20054;-60
2022/06/05 03:31:51;;;;;;;52.28;25.48;;;;;;;;;;6203206;28;20050;-61
2022/06/05 03:34:53;;;;;;;74.00;27.52;;;;;;;;;;6201627;28;20513;-61
2022/06/05 03:37:53;;;;;;;58.47;29.95;;;;;;;;;;6200304;28;20105;-61
2022/06/05 03:40:54;;;;;;;55.22;27.35;;;;;;;;;;6204388;28;20915;-61
2022/06/05 03:43:55;;;;;;;60.88;32.47;;;;;;;;;;6203031;28;20076;-61
2022/06/05 03:46:55;;;;;;;63.08;33.53;;;;;;;;;;6202276;28;20057;-61
2022/06/05 03:49:56;;;;;;;62.17;31.70;;;;;;;;;;6198603;28;20050;-61
2022/06/05 03:52:56;;;;;;;64.53;33.05;;;;;;;;;;6199334;28;20073;-61
2022/06/05 03:55:57;;;;;;;70.63;33.95;;;;;;;;;;6198829;28;20386;-62
2022/06/05 03:58:58;;;;;;;75.70;38.40;;;;;;;;;;6201399;28;20056;-61
2022/06/05 04:01:59;;;;;;;80.83;40.57;;;;;;;;;;6202295;28;20049;-61
2022/06/05 04:05:00;;;;;;;75.30;39.75;;;;;;;;;;6196773;28;20440;-61
2022/06/05 04:08:01;;;;;;;81.68;41.88;;;;;;;;;;6198475;28;20073;-61
2022/06/05 04:11:09;;;;;;;75.00;39.83;;;;;;;;;;6197969;28;20808;-61
2022/06/05 04:14:10;;;;;;;80.10;40.28;;;;;;;;;;6200182;28;20045;-60
2022/06/05 04:17:11;;;;;;;75.20;38.25;;;;;;;;;;6198725;28;20536;-61
2022/06/05 04:20:12;;;;;;;70.55;36.72;;;;;;;;;;6198001;28;20457;-62
2022/06/05 04:23:13;;;;;;;72.03;37.42;;;;;;;;;;6195683;28;20041;-62
2022/06/05 04:26:16;;;;;;;72.30;37.72;;;;;;;;;;6199612;28;20037;-61
2022/06/05 04:29:17;;;;;;;68.50;36.25;;;;;;;;;;6197628;28;20053;-61
2022/06/05 04:32:18;;;;;;;70.47;36.87;;;;;;;;;;6202033;28;20492;-60
2022/06/05 04:35:19;;;;;;;63.65;36.17;;;;;;;;;;6202115;28;20092;-60
2022/06/05 04:38:19;;;;;;;66.72;35.80;;;;;;;;;;6197870;28;20042;-61
2022/06/05 04:41:21;;;;;;;69.75;36.85;;;;;;;;;;6197349;28;20058;-61
2022/06/05 04:44:21;;;;;;;67.28;35.35;;;;;;;;;;6199532;28;20453;-61
2022/06/05 04:47:22;;;;;;;62.72;34.85;;;;;;;;;;6196862;28;20046;-61
2022/06/05 04:50:23;;;;;;;66.50;35.55;;;;;;;;;;6199804;28;20501;-61
2022/06/05 04:53:23;;;;;;;65.65;36.03;;;;;;;;;;6200150;28;20042;-60
2022/06/05 04:56:25;;;;;;;68.07;35.80;;;;;;;;;;6197088;28;20488;-61
2022/06/05 04:59:27;;;;;;;63.58;34.05;;;;;;;;;;6199799;28;20320;-61
2022/06/05 05:02:28;;;;;;;62.55;34.70;;;;;;;;;;6205371;28;20100;-60
2022/06/05 05:05:28;;;;;;;66.70;36.15;;;;;;;;;;6199681;28;20137;-60
2022/06/05 05:08:29;;;;;;;59.83;33.20;;;;;;;;;;6198229;28;20049;-61
2022/06/05 05:11:30;;;;;;;72.68;39.33;;;;;;;;;;6207250;28;20046;-61
2022/06/05 05:14:31;;;;;;;66.82;35.45;;;;;;;;;;6211348;28;20049;-61
2022/06/05 05:17:31;;;;;;;64.32;34.67;;;;;;;;;;6210746;28;20073;-60
2022/06/05 05:20:32;;;;;;;66.95;37.13;;;;;;;;;;6213116;28;20049;-61
2022/06/05 05:23:33;;;;;;;62.13;34.35;;;;;;;;;;6200699;28;20520;-61
2022/06/05 05:26:35;;;;;;;55.55;32.45;;;;;;;;;;6196151;28;20150;-60
2022/06/05 05:29:38;;;;;;;63.00;33.13;;;;;;;;;;6197825;28;20054;-61
2022/06/05 05:32:39;;;;;;;58.88;32.25;;;;;;;;;;6195124;28;20156;-61
2022/06/05 05:35:40;;;;;;;56.83;32.08;;;;;;;;;;6198664;28;20759;-61
2022/06/05 05:42:04;;;;;;;56.03;32.07;;;;;;;;;;6195888;28;20174;-65
2022/06/05 05:42:08;;;;;;;55.78;31.60;;;;;;;;;;6200076;28;20090;-63
2022/06/05 05:45:09;;;;;;;55.60;32.15;;;;;;;;;;6205693;28;20074;-62
2022/06/05 05:48:10;;;;;;;71.65;41.03;;;;;;;;;;6214779;28;20050;-61
2022/06/05 05:51:13;;;;;;;59.90;34.70;;;;;;;;;;6211721;28;20493;-61
2022/06/05 05:54:14;;;;;;;60.78;35.38;;;;;;;;;;6215606;28;20470;-61
2022/06/05 05:57:16;;;;;;;59.53;32.22;;;;;;;;;;6216674;28;20042;-61
2022/06/05 06:00:18;;;;;;;57.30;31.77;;;;;;;;;;6216906;28;20042;-61
2022/06/05 06:03:19;;;;;;;63.17;33.72;;;;;;;;;;6210212;28;20823;-61
2022/06/05 06:06:26;;;;;;;58.17;34.83;;;;;;;;;;6206047;28;20121;-61
2022/06/05 06:09:27;;;;;;;56.90;32.80;;;;;;;;;;6210840;28;20045;-61
2022/06/05 06:12:28;;;;;;;58.50;33.60;;;;;;;;;;6214886;28;20132;-61
2022/06/05 06:15:28;;;;;;;53.17;31.15;;;;;;;;;;6213220;28;20093;-62
2022/06/05 06:18:29;;;;;;;57.10;32.28;;;;;;;;;;6209430;28;20536;-62
2022/06/05 06:21:30;;;;;;;54.60;31.55;;;;;;;;;;6212573;28;20050;-63
2022/06/05 06:24:31;;;;;;;51.75;30.63;;;;;;;;;;6212627;28;20803;-62
2022/06/05 06:27:32;;;;;;;51.87;31.53;;;;;;;;;;6211011;28;20103;-61
2022/06/05 06:30:33;;;;;;;53.95;30.02;;;;;;;;;;6210908;28;20148;-62
2022/06/05 06:33:34;;;;;;;;;;;;;;;;;;6211373;28;20042;-62
2022/06/05 06:36:35;;;;;;;45.05;28.63;;;;;;;;;;6214721;28;20300;-61
2022/06/05 06:39:36;;;;;;;45.70;28.30;;;;;;;;;;6022820;23;20059;-62
2022/06/05 06:42:36;;;;;;;44.30;29.05;;;;;;;;;;6178639;28;20136;-62
2022/06/05 06:45:38;;;;;;;47.13;29.60;;;;;;;;;;6181041;28;20100;-62
2022/06/05 06:48:38;;;;;;;54.28;30.55;;;;;;;;;;6190821;28;20050;-62
2022/06/05 06:51:40;;;;;;;50.07;31.50;;;;;;;;;;6171979;28;20143;-61
2022/06/05 06:54:41;;;;;;;52.00;32.35;;;;;;;;;;6173287;28;20145;-61
2022/06/05 06:57:44;;;;;;;59.37;34.10;;;;;;;;;;6176735;28;20047;-61
2022/06/05 07:00:44;;;;;;;54.78;31.58;;;;;;;;;;6171624;28;20066;-64
2022/06/05 07:03:45;;;;;;;55.57;32.80;;;;;;;;;;6164916;28;20135;-62
2022/06/05 07:06:46;;;;;;;53.83;33.50;;;;;;;;;;6179567;28;20165;-60
2022/06/05 07:09:46;;;;;;;54.03;33.77;;;;;;;;;;6173988;28;20470;-61
2022/06/05 07:12:47;;;;;;;53.23;32.33;;;;;;;;;;6183435;28;20512;-62
2022/06/05 07:15:48;;;;;;;56.60;36.65;;;;;;;;;;6187055;28;20065;-62
2022/06/05 07:18:49;;;;;;;60.03;35.57;;;;;;;;;;6187683;28;20396;-61
2022/06/05 07:21:49;;;;;;;73.77;40.67;;;;;;;;;;6178630;28;20066;-62
2022/06/05 07:24:50;;;;;;;73.23;45.13;;;;;;;;;;6166450;28;20129;-61
2022/06/05 07:27:51;;;;;;;59.15;35.05;;;;;;;;;;6166061;28;20292;-61
2022/06/05 07:30:52;;;;;;;46.00;30.70;;;;;;;;;;6172508;28;20104;-61
2022/06/05 07:33:52;;;;;;;51.97;33.20;;;;;;;;;;6184087;28;20050;-61
2022/06/05 07:36:53;;;;;;;52.17;31.30;;;;;;;;;;6171843;28;20103;-61
2022/06/05 07:39:54;;;;;;;47.87;31.80;;;;;;;;;;6166276;28;20077;-62
2022/06/05 07:42:54;;;;;;;47.53;30.33;;;;;;;;;;6171361;28;20106;-61
2022/06/05 07:45:57;;;;;;;38.67;26.05;;;;;;;;;;6172162;28;20051;-61
2022/06/05 07:48:58;;;;;;;43.92;27.85;;;;;;;;;;6169710;28;20059;-62
2022/06/05 07:55:18;;;;;;;41.13;26.77;;;;;;;;;;6182098;28;20542;-61
2022/06/05 07:58:18;;;;;;;32.80;24.30;;;;;;;;;;6192062;28;20043;-61
2022/06/05 08:01:19;;;;;;;33.13;23.93;;;;;;;;;;6182944;28;20556;-61
2022/06/05 08:04:19;;;;;;;34.93;24.67;;;;;;;;;;6187172;28;20066;-61
2022/06/05 08:07:26;;;;;;;31.93;24.60;;;;;;;;;;6183073;28;20138;-62
2022/06/05 08:10:26;;;;;;;38.88;26.42;;;;;;;;;;6182554;28;20066;-62
2022/06/05 08:13:27;;;;;;;40.57;25.27;;;;;;;;;;6185457;28;20042;-61
2022/06/05 08:16:28;;;;;;;30.67;22.80;;;;;;;;;;6185299;28;20474;-61
2022/06/05 08:19:29;;;;;;;41.47;24.97;;;;;;;;;;6184765;28;20125;-61
2022/06/05 08:22:29;;;;;;;36.47;24.57;;;;;;;;;;6177936;28;20086;-61
2022/06/05 08:25:30;;;;;;;33.90;25.03;;;;;;;;;;6186505;28;20158;-61
2022/06/05 08:28:31;;;;;;;38.47;26.20;;;;;;;;;;6190223;28;20070;-61
2022/06/05 08:31:33;;;;;;;33.50;23.80;;;;;;;;;;6184379;28;20125;-62
2022/06/05 08:34:34;;;;;;;33.00;23.95;;;;;;;;;;6163881;28;20047;-61
2022/06/05 08:41:27;;;;;;;29.40;21.73;;;;;;;;;;6178946;28;20505;-61
2022/06/05 08:44:40;;;;;;;29.73;21.48;;;;;;;;;;6187113;28;20046;-61
2022/06/05 08:48:06;;;;;;;29.48;22.08;;;;;;;;;;6186796;28;20050;-62
2022/06/05 08:51:27;;;;;;;28.45;20.48;;;;;;;;;;6186753;28;20409;-62
2022/06/05 08:54:40;;;;;;;25.88;20.40;;;;;;;;;;6177898;28;20466;-62
2022/06/05 08:57:51;;;;;;;30.55;21.67;;;;;;;;;;6181775;28;20051;-61
2022/06/05 09:01:16;;;;;;;30.02;21.02;;;;;;;;;;6171756;28;20038;-62
2022/06/05 09:04:31;;;;;;;33.13;21.42;;;;;;;;;;6185025;28;20081;-61
2022/06/05 09:08:03;;;;;;;29.20;22.17;;;;;;;;;;6155470;28;20667;-61
2022/06/05 09:11:09;;;;;;;32.50;22.25;;;;;;;;;;6157556;28;20105;-61
2022/06/05 09:14:20;;;;;;;28.85;20.75;;;;;;;;;;6157042;28;20082;-61
2022/06/05 09:17:21;;;;;;;29.10;20.60;;;;;;;;;;6156184;28;20086;-60
2022/06/05 09:20:37;;;;;;;27.00;19.58;;;;;;;;;;6159508;28;20043;-58
2022/06/05 09:23:50;;;;;;;33.92;22.35;;;;;;;;;;6157335;28;20142;-61
2022/06/05 09:27:10;;;;;;;31.67;21.65;;;;;;;;;;6155910;28;21647;-60
2022/06/05 09:30:22;;;;;;;29.00;21.10;;;;;;;;;;6161158;28;20893;-61
2022/06/05 09:33:27;;;;;;;31.55;21.00;;;;;;;;;;6158005;28;20067;-61
2022/06/05 09:36:32;;;;;;;29.27;20.95;;;;;;;;;;6156576;28;20520;-61
2022/06/05 09:39:39;;;;;;;30.50;21.17;;;;;;;;;;6157847;28;20069;-60
2022/06/05 09:43:18;;;;;;;26.85;19.70;;;;;;;;;;6157859;28;20533;-61
2022/06/05 09:46:28;;;;;;;35.80;24.63;;;;;;;;;;6158494;28;20102;-61
2022/06/05 09:49:39;;;;;;;46.60;33.13;;;;;;;;;;6159300;28;20166;-61
2022/06/05 09:52:40;;;;;;;30.02;20.85;;;;;;;;;;6160128;28;20180;-61
2022/06/05 09:55:59;;;;;;;24.00;18.95;;;;;;;;;;6157996;28;20061;-61
2022/06/05 09:59:17;;;;;;;26.05;18.73;;;;;;;;;;6162666;28;20603;-62
2022/06/05 10:02:21;;;;;;;21.02;17.65;;;;;;;;;;6160511;28;20074;-61
2022/06/05 10:05:30;;;;;;;22.90;18.25;;;;;;;;;;6160302;28;20046;-62
2022/06/05 10:08:41;;;;;;;24.00;18.33;;;;;;;;;;6161495;28;20078;-61
2022/06/05 10:11:51;;;;;;;24.73;17.95;;;;;;;;;;6159336;28;20149;-61
2022/06/05 10:15:29;;;;;;;21.52;17.75;;;;;;;;;;6157674;28;20046;-61
2022/06/05 10:18:54;;;;;;;22.80;17.25;;;;;;;;;;6158065;28;20181;-61
2022/06/05 10:22:04;;;;;;;19.83;16.25;;;;;;;;;;6159497;28;20070;-60
2022/06/05 10:25:37;;;;;;;20.77;16.73;;;;;;;;;;6155860;28;20066;-61
2022/06/05 10:28:41;;;;;;;20.75;16.27;;;;;;;;;;6157528;28;20484;-61
2022/06/05 10:31:52;;;;;;;19.75;15.65;;;;;;;;;;6158461;28;20109;-60
2022/06/05 10:35:01;;;;;;;20.67;16.92;;;;;;;;;;6158007;28;20055;-61
2022/06/05 10:38:25;;;;;;;24.33;16.58;;;;;;;;;;6158255;28;20498;-60
2022/06/05 10:41:39;;;;;;;18.13;14.55;;;;;;;;;;6157404;28;20058;-60
2022/06/05 10:44:48;;;;;;;17.55;13.90;;;;;;;;;;6159123;28;20149;-61
2022/06/05 10:48:20;;;;;;;18.02;15.30;;;;;;;;;;6161735;28;20038;-61
2022/06/05 10:51:33;;;;;;;21.40;14.93;;;;;;;;;;6160289;28;20081;-61
2022/06/05 10:54:45;;;;;;;16.80;14.55;;;;;;;;;;6158520;28;20050;-60
2022/06/05 10:57:55;;;;;;;19.67;14.57;;;;;;;;;;6158288;28;20075;-62
2022/06/05 11:00:58;;;;;;;16.35;13.82;;;;;;;;;;6157528;28;20054;-61
2022/06/05 11:04:18;;;;;;;16.88;14.02;;;;;;;;;;6158571;28;20447;-60
2022/06/05 11:07:56;;;;;;;20.35;13.90;;;;;;;;;;6155909;28;20050;-61
2022/06/05 11:14:53;;;;;;;17.92;15.05;;;;;;;;;;6157311;28;20074;-61
2022/06/05 11:18:11;;;;;;;18.35;16.13;;;;;;;;;;6157053;28;21375;-60
2022/06/05 11:21:17;;;;;;;16.98;15.07;;;;;;;;;;6158722;28;20047;-60
2022/06/05 11:24:25;;;;;;;20.08;15.68;;;;;;;;;;6160239;28;20078;-61
2022/06/05 11:27:28;;;;;;;15.93;13.57;;;;;;;;;;6161903;28;20522;-60
2022/06/05 11:30:33;;;;;;;15.20;13.60;;;;;;;;;;6163193;28;20516;-61
2022/06/05 11:33:46;;;;;;;18.38;13.98;;;;;;;;;;6161886;28;20059;-61
2022/06/05 11:36:52;;;;;;;15.95;14.25;;;;;;;;;;6160612;28;20074;-61
2022/06/05 11:39:53;;;;;;;19.83;14.27;;;;;;;;;;6159513;28;21090;-61
2022/06/05 11:43:27;;;;;;;14.77;12.95;;;;;;;;;;6161047;28;20050;-60
2022/06/05 11:46:32;;;;;;;15.93;12.75;;;;;;;;;;6158585;28;20050;-61
2022/06/05 11:50:10;;;;;;;22.80;16.95;;;;;;;;;;6160368;28;20133;-61
2022/06/05 11:53:30;;;;;;;34.00;26.15;;;;;;;;;;6161556;28;20185;-61
2022/06/05 11:57:08;;;;;;;15.32;12.70;;;;;;;;;;6159695;28;20066;-60
2022/06/05 12:00:20;;;;;;;14.30;11.95;;;;;;;;;;6161396;28;20059;-60
2022/06/05 12:03:46;;;;;;;14.38;12.02;;;;;;;;;;6159404;28;20074;-60
2022/06/05 12:06:51;;;;;;;19.52;15.52;;;;;;;;;;6158595;28;20054;-60
2022/06/05 12:09:59;;;;;;;14.07;12.20;;;;;;;;;;6161960;28;20137;-63
2022/06/05 12:13:37;;;;;;;13.55;12.07;;;;;;;;;;6161218;28;20051;-60
2022/06/05 12:16:50;;;;;;;19.02;12.80;;;;;;;;;;6156254;28;20062;-60
2022/06/05 12:20:19;;;;;;;14.85;11.95;;;;;;;;;;6158526;28;20046;-60
2022/06/05 12:23:41;;;;;;;14.02;12.43;;;;;;;;;;6159199;28;20501;-60
2022/06/05 12:26:57;;;;;;;13.77;11.60;;;;;;;;;;6156753;28;20042;-61
2022/06/05 12:30:16;;;;;;;14.43;11.60;;;;;;;;;;6156580;28;20074;-60
2022/06/05 12:33:30;;;;;;;15.10;11.85;;;;;;;;;;6157964;28;20057;-60
2022/06/05 12:36:44;;;;;;;13.57;11.27;;;;;;;;;;6157588;28;20078;-60
2022/06/05 12:39:49;;;;;;;13.90;11.70;;;;;;;;;;6158942;28;20051;-61
2022/06/05 12:43:00;;;;;;;13.45;11.68;;;;;;;;;;6160197;28;20093;-61
2022/06/05 12:46:14;;;;;;;14.07;12.07;;;;;;;;;;6155369;28;20061;-61
2022/06/05 12:49:58;;;;;;;13.30;11.50;;;;;;;;;;6159101;28;20936;-60
2022/06/05 12:53:27;;;;;;;15.65;11.43;;;;;;;;;;6159044;28;20055;-62
2022/06/05 12:56:48;;;;;;;17.30;11.75;;;;;;;;;;6156743;28;20149;-60
2022/06/05 12:59:59;;;;;;;12.98;11.68;;;;;;;;;;6154760;28;20529;-60
2022/06/05 13:03:10;;;;;;;12.65;11.02;;;;;;;;;;6156783;28;20082;-60
2022/06/05 13:06:23;;;;;;;15.90;11.70;;;;;;;;;;6155876;28;20903;-61
2022/06/05 13:09:41;;;;;;;13.50;11.25;;;;;;;;;;6156817;28;20178;-61
2022/06/05 13:13:00;;;;;;;13.73;11.05;;;;;;;;;;6155483;28;20090;-60
2022/06/05 13:16:05;;;;;;;12.90;10.88;;;;;;;;;;6152186;28;20085;-60
2022/06/05 13:19:28;;;;;;;11.93;10.20;;;;;;;;;;6156699;28;20727;-61
2022/06/05 13:22:39;;;;;;;13.77;10.65;;;;;;;;;;6158799;28;20141;-60
2022/06/05 13:26:03;;;;;;;12.40;10.57;;;;;;;;;;6155358;28;20055;-60
2022/06/05 13:29:34;;;;;;;14.10;11.32;;;;;;;;;;6159524;28;20513;-60
2022/06/05 13:32:55;;;;;;;13.30;10.77;;;;;;;;;;6159559;28;20051;-61
2022/06/05 13:36:02;;;;;;;15.18;10.77;;;;;;;;;;6159091;28;20387;-60
2022/06/05 13:39:19;;;;;;;15.27;11.20;;;;;;;;;;6159556;28;20089;-60
2022/06/05 13:42:23;;;;;;;12.20;10.70;;;;;;;;;;6156461;28;20082;-61
2022/06/05 13:45:31;;;;;;;11.95;9.93;;;;;;;;;;6158856;28;20422;-60
2022/06/05 13:48:43;;;;;;;13.73;10.00;;;;;;;;;;6158284;28;20060;-61
2022/06/05 13:52:17;;;;;;;16.48;11.07;;;;;;;;;;6156584;28;20247;-61
2022/06/05 13:55:37;;;;;;;13.35;11.20;;;;;;;;;;6156642;28;20539;-61
2022/06/05 13:58:43;;;;;;;13.80;10.07;;;;;;;;;;6157146;28;20110;-61
2022/06/05 14:02:18;;;;;;;16.83;11.10;;;;;;;;;;6155654;28;20062;-60
2022/06/05 14:05:22;;;;;;;14.98;10.60;;;;;;;;;;6156262;28;20054;-60
2022/06/05 14:08:44;;;;;;;12.07;10.35;;;;;;;;;;6157024;28;20597;-60
2022/06/05 14:11:47;;;;;;;14.02;9.95;;;;;;;;;;6157100;28;21359;-60
2022/06/05 14:14:48;;;;;;;12.48;10.40;;;;;;;;;;6155053;28;20055;-59
2022/06/05 14:17:48;;;;;;;13.00;9.70;;;;;;;;;;6158660;28;20051;-60
2022/06/05 14:20:52;;;;;;;11.50;10.30;;;;;;;;;;6162130;28;20049;-59
2022/06/05 14:23:54;;;;;;;13.20;9.82;;;;;;;;;;6162112;28;20305;-59
2022/06/05 14:27:00;;;;;;;13.18;10.07;;;;;;;;;;6160222;28;20771;-59
2022/06/05 14:30:21;;;;;;;12.07;10.30;;;;;;;;;;6162427;28;20061;-60
2022/06/05 14:33:32;;;;;;;11.15;9.50;;;;;;;;;;6161322;28;20094;-61
2022/06/05 14:36:37;;;;;;;11.53;9.77;;;;;;;;;;6160934;28;20874;-61
2022/06/05 14:39:43;;;;;;;11.80;10.05;;;;;;;;;;6162217;28;20054;-61
2022/06/05 14:42:52;;;;;;;12.52;9.52;;;;;;;;;;6158715;28;20063;-61
2022/06/05 14:46:06;;;;;;;12.60;9.95;;;;;;;;;;6162015;28;20050;-61
2022/06/05 14:49:33;;;;;;;11.38;10.18;;;;;;;;;;6162434;28;20146;-62
2022/06/05 14:52:38;;;;;;;11.95;9.48;;;;;;;;;;6151782;28;20189;-60
2022/06/05 14:59:17;;;;;;;11.48;9.57;;;;;;;;;;6164748;28;20096;-61
2022/06/05 15:02:26;;;;;;;11.07;9.65;;;;;;;;;;6164322;28;20059;-61
2022/06/05 15:05:33;;;;;;;12.65;10.18;;;;;;;;;;6161119;28;20555;-62
2022/06/05 15:08:42;;;;;;;13.68;10.38;;;;;;;;;;6162632;28;20671;-60
2022/06/05 15:12:04;;;;;;;11.35;9.70;;;;;;;;;;6162869;28;20483;-61
2022/06/05 15:15:13;;;;;;;11.50;9.25;;;;;;;;;;6161871;28;20050;-62
2022/06/05 15:18:17;;;;;;;16.48;10.60;;;;;;;;;;6163230;28;20058;-62
2022/06/05 15:21:47;;;;;;;10.93;9.70;;;;;;;;;;6169571;28;20149;-59
2022/06/05 15:24:59;;;;;;;13.77;9.80;;;;;;;;;;6159922;28;20078;-61
2022/06/05 15:28:06;;;;;;;16.73;11.73;;;;;;;;;;6167100;28;20228;-61
2022/06/05 15:31:30;;;;;;;12.15;10.10;;;;;;;;;;6165063;28;20146;-60
2022/06/05 15:34:38;;;;;;;11.68;10.48;;;;;;;;;;6160532;28;20077;-62
2022/06/05 15:37:50;;;;;;;11.30;9.52;;;;;;;;;;6164242;28;20916;-61
2022/06/05 15:41:29;;;;;;;10.70;8.90;;;;;;;;;;6163555;28;20506;-60
2022/06/05 15:45:07;;;;;;;10.85;9.40;;;;;;;;;;6161052;28;20142;-61
2022/06/05 15:48:13;;;;;;;9.63;8.63;;;;;;;;;;6162112;28;20210;-61
2022/06/05 15:51:48;;;;;;;10.10;9.00;;;;;;;;;;6163660;28;20490;-60
2022/06/05 15:55:26;;;;;;;12.60;9.90;;;;;;;;;;6163389;28;20053;-61
2022/06/05 15:58:49;;;;;;;11.32;9.20;;;;;;;;;;6166048;28;20133;-61
2022/06/05 16:01:58;;;;;;;10.80;9.05;;;;;;;;;;6163800;28;20173;-60
2022/06/05 16:05:15;;;;;;;9.52;8.52;;;;;;;;;;6159221;28;20146;-61
2022/06/05 16:08:24;;;;;;;9.85;8.82;;;;;;;;;;6161906;28;20525;-62
2022/06/05 16:11:37;;;;;;;10.88;8.75;;;;;;;;;;6164323;28;20082;-61
2022/06/05 16:15:01;;;;;;;10.50;8.18;;;;;;;;;;6160438;28;20051;-61
2022/06/05 16:18:20;;;;;;;10.82;8.50;;;;;;;;;;6158573;28;20236;-61
2022/06/05 16:21:40;;;;;;;10.32;8.77;;;;;;;;;;6163973;28;20050;-62
2022/06/05 16:24:48;;;;;;;12.90;8.90;;;;;;;;;;6163629;28;20145;-61
2022/06/05 16:27:53;;;;;;;11.05;8.43;;;;;;;;;;6164551;28;20425;-61
2022/06/05 16:31:16;;;;;;;8.93;8.02;;;;;;;;;;6161727;28;20867;-61
2022/06/05 16:34:32;;;;;;;15.70;8.82;;;;;;;;;;6160244;28;20054;-63
2022/06/05 16:40:54;;;;;;;10.23;8.55;;;;;;;;;;6159334;28;20097;-60
2022/06/05 16:44:00;;;;;;;10.48;8.70;;;;;;;;;;6159769;28;20090;-62
2022/06/05 16:47:01;;;;;;;9.88;8.52;;;;;;;;;;6160094;28;20047;-65
2022/06/05 16:50:22;;;;;;;11.73;9.45;;;;;;;;;;6162377;28;20051;-62
2022/06/05 16:53:24;;;;;;;10.23;9.10;;;;;;;;;;6161873;28;20501;-61
2022/06/05 16:56:25;;;;;;;10.48;8.57;;;;;;;;;;6161202;28;20584;-61
2022/06/05 16:59:30;;;;;;;15.43;10.50;;;;;;;;;;6163306;28;20043;-60
2022/06/05 17:03:04;;;;;;;10.82;8.52;;;;;;;;;;6164261;28;20383;-61
2022/06/05 17:06:33;;;;;;;11.10;8.35;;;;;;;;;;6160706;28;21602;-61
2022/06/05 17:09:34;;;;;;;13.52;8.15;;;;;;;;;;6162007;28;20070;-61
2022/06/05 17:12:49;;;;;;;9.63;8.30;;;;;;;;;;6161100;28;20054;-61
2022/06/05 17:15:58;;;;;;;10.30;8.80;;;;;;;;;;6161417;28;20442;-61
2022/06/05 17:19:04;;;;;;;10.68;8.60;;;;;;;;;;6161160;28;20662;-61
2022/06/05 17:22:27;;;;;;;9.55;8.55;;;;;;;;;;6163752;28;20177;-60
2022/06/05 17:25:46;;;;;;;13.18;9.35;;;;;;;;;;6157423;28;20061;-62
2022/06/05 17:29:06;;;;;;;11.52;9.43;;;;;;;;;;6159031;28;20525;-60
2022/06/05 17:32:18;;;;;;;11.73;8.93;;;;;;;;;;6158411;28;20097;-62
2022/06/05 17:35:31;;;;;;;;;;;;;;;;;;6161313;28;20628;-63
2022/06/05 17:38:41;;;;;;;17.13;11.63;;;;;;;;;;6160271;28;19984;-61
2022/06/05 17:42:06;;;;;;;17.45;13.40;;;;;;;;;;6161006;28;20568;-62
2022/06/05 17:45:13;;;;;;;12.85;8.98;;;;;;;;;;6158087;28;20154;-63
2022/06/05 17:48:43;;;;;;;10.45;9.25;;;;;;;;;;6160288;28;20054;-63
2022/06/05 17:51:49;;;;;;;10.55;8.50;;;;;;;;;;6161060;28;20051;-63
2022/06/05 17:55:18;;;;;;;12.23;8.63;;;;;;;;;;6160978;28;20080;-62
2022/06/05 17:58:45;;;;;;;13.70;9.73;;;;;;;;;;6147948;28;20134;-62
2022/06/05 18:01:47;;;;;;;11.20;9.50;;;;;;;;;;6157471;28;20074;-62
2022/06/05 18:05:02;;;;;;;11.52;9.55;;;;;;;;;;6158344;28;20050;-62
2022/06/05 18:08:12;;;;;;;10.55;9.23;;;;;;;;;;6157175;28;20050;-62
2022/06/05 18:11:16;;;;;;;11.85;10.00;;;;;;;;;;6156176;28;20050;-61
2022/06/05 18:14:29;;;;;;;13.50;10.10;;;;;;;;;;6157236;28;20161;-62
2022/06/05 18:17:39;;;;;;;13.52;10.15;;;;;;;;;;6157248;28;20587;-62
2022/06/05 18:20:52;;;;;;;15.17;11.50;;;;;;;;;;6157392;28;20086;-61
2022/06/05 18:23:52;;;;;;;14.43;11.48;;;;;;;;;;6156090;28;20050;-61
2022/06/05 18:27:22;;;;;;;13.60;11.02;;;;;;;;;;6155981;28;20093;-61
2022/06/05 18:30:40;;;;;;;12.75;10.57;;;;;;;;;;6154487;28;20490;-61
2022/06/05 18:33:55;;;;;;;17.30;10.68;;;;;;;;;;6165036;28;20082;-61
2022/06/05 18:40:36;;;;;;;15.40;10.43;;;;;;;;;;6162036;28;20128;-62
2022/06/05 18:43:37;;;;;;;15.35;10.93;;;;;;;;;;6161387;28;20054;-62
2022/06/05 18:46:40;;;;;;;14.43;11.07;;;;;;;;;;6160184;28;20051;-60
2022/06/05 18:49:44;;;;;;;13.70;10.98;;;;;;;;;;6160990;28;20494;-60